Viking Queen — WDB9919 — position and weather

sailwx.info

Track history (hours):
 
Tides and Currents Weather Stations Pressure Air Temp Water Temp Dewpoint Dewpoint Depression Visibility Wind Speed Wind Dir Waves Ship Positions

Viking Queen

Owner: American River Transportation Company, St Louis, MO. More information available from US FCC via Universal Licensing System and Coast Guard Vessel Documentation Center.

Last reported at 2018-May-16 08:17 UTC. Time now 2018-May-22 15:46 UTC.
Position N 32°57' W 091°06'.

Length 58 m.

Type: Towing. MMSI: 366985050.

Date/timePositionNaut miles runAvg speedWind from/ knotsBaromVisibWave heightAir tempDewpointWater temp
2018-May-16 08:17N 32°57' W 091°06'0 0.1
2018-May-16 07:50N 32°57' W 091°06'0 0.3
2018-May-16 07:01N 32°57' W 091°06'0 4.3
2018-May-16 07:00N 32°57' W 091°05'2 3.8
2018-May-16 06:30N 32°56' W 091°04'2 4.2
2018-May-16 05:59N 32°54' W 091°04'2 4.6
2018-May-16 05:30N 32°52' W 091°06'4 4.4
2018-May-16 04:40N 32°49' W 091°09'1 4.1
2018-May-16 04:30N 32°49' W 091°09'2 4.3
2018-May-16 04:00N 32°46' W 091°10'2 4.3
2018-May-16 03:30N 32°44' W 091°09'3 2.9
2018-May-16 02:23N 32°44' W 091°05'2 4.1
2018-May-16 02:00N 32°43' W 091°03'2 3.9
2018-May-16 01:26N 32°41' W 091°04'2 5.0
2018-May-16 01:00N 32°40' W 091°07'2 4.2
2018-May-16 00:30N 32°39' W 091°09'2 5.0
2018-May-16 00:00N 32°37' W 091°09'2 4.6
2018-May-15 23:30N 32°35' W 091°07'2 4.5
2018-May-15 23:00N 32°33' W 091°06'2 4.6
2018-May-15 22:30N 32°31' W 091°07'1 2.1
2018-May-15 22:00N 32°30' W 091°07'2 4.5
2018-May-15 21:30N 32°28' W 091°06'2 4.8
2018-May-15 21:00N 32°26' W 091°03'2 4.8
2018-May-15 20:29N 32°26' W 091°01'2 4.3
2018-May-15 20:00N 32°24' W 090°60'2 4.4
2018-May-15 19:30N 32°22' W 091°00'2 4.4
2018-May-15 19:00N 32°21' W 090°58'1 2.2
2018-May-15 18:30N 32°21' W 090°56'0 0.0
2018-May-15 18:00N 32°21' W 090°56'0 0.0
2018-May-15 17:30N 32°21' W 090°56'0 0.0
2018-May-15 17:00N 32°21' W 090°56'0 0.0
2018-May-15 16:30N 32°21' W 090°56'0 0.0
2018-May-15 16:00N 32°21' W 090°56'0 0.0
2018-May-15 15:30N 32°21' W 090°56'0 0.0
2018-May-15 15:00N 32°21' W 090°56'1 2.8
2018-May-15 14:30N 32°20' W 090°55'2 3.6
2018-May-15 14:00N 32°19' W 090°54'1 2.3
2018-May-15 13:30N 32°18' W 090°56'0 0.3
2018-May-15 12:59N 32°18' W 090°56'1 2.8
2018-May-15 12:30N 32°17' W 090°57'2 4.5
2018-May-15 12:00N 32°15' W 090°58'1 2.6
2018-May-15 11:30N 32°14' W 090°59'2 4.6
2018-May-15 11:00N 32°12' W 090°59'2 3.7
2018-May-15 10:29N 32°10' W 090°60'2 3.8
2018-May-15 10:00N 32°08' W 091°00'2 3.7
2018-May-15 09:30N 32°07' W 091°02'1 2.3
2018-May-15 08:59N 32°08' W 091°04'1 2.0
2018-May-15 08:30N 32°08' W 091°05'0 0.2
2018-May-15 08:00N 32°08' W 091°05'0 0.4
2018-May-15 07:30N 32°08' W 091°05'1 1.9
2018-May-15 07:00N 32°08' W 091°06'2 3.1
2018-May-15 06:30N 32°06' W 091°06'2 4.6
2018-May-15 05:59N 32°05' W 091°04'2 4.1
2018-May-15 05:30N 32°03' W 091°04'2 4.1
2018-May-15 04:58N 32°01' W 091°05'49 3.2
2018-May-14 13:46N 31°17' W 091°31'1 3.7
2018-May-14 13:29N 31°16' W 091°31'5 3.5
2018-May-14 11:59N 31°16' W 091°37'7 2.6
2018-May-14 09:21N 31°09' W 091°36'  
2018-May-09 21:42N 31°57' W 091°11'2 9.3
2018-May-09 21:30N 31°59' W 091°10'5 9.7
2018-May-09 21:00N 32°01' W 091°05'5 8.5
2018-May-09 20:25N 32°06' W 091°05'2 5.9
2018-May-09 20:00N 32°08' W 091°05'4 8.3
2018-May-09 19:30N 32°09' W 091°00'510.6
2018-May-09 19:00N 32°14' W 090°59'5 9.1
2018-May-09 18:30N 32°18' W 090°55'3 5.7
2018-May-09 18:00N 32°20' W 090°54'3 6.8
2018-May-09 17:30N 32°21' W 090°58'4 7.4
2018-May-09 17:00N 32°24' W 090°60'510.0
2018-May-09 16:30N 32°27' W 091°05'5 9.1
2018-May-09 15:59N 32°31' W 091°06'8 9.0
2018-May-09 15:03N 32°40' W 091°08'0 9.7
2018-May-09 15:00N 32°40' W 091°08'12 6.2
2018-May-09 13:08N 32°51' W 091°07'210.3
2018-May-09 12:59N 32°52' W 091°05'  
2018-May-06 21:38N 38°36' W 090°12'0 0.1
2018-May-06 17:56N 38°36' W 090°12'0 0.0
2018-May-06 17:28N 38°36' W 090°12'0 0.1
2018-May-06 13:08N 38°36' W 090°12'0 0.0
2018-May-06 12:38N 38°36' W 090°12'0 0.0
2018-May-06 12:15N 38°36' W 090°12'0 0.0
2018-May-06 11:21N 38°36' W 090°12'0 0.0
2018-May-06 10:54N 38°36' W 090°12'0 0.0
2018-May-06 10:07N 38°36' W 090°12'0 0.0
2018-May-06 10:00N 38°36' W 090°12'0 0.0
2018-May-06 09:30N 38°36' W 090°12'0 0.0
2018-May-06 09:00N 38°36' W 090°12'0 0.0
2018-May-06 08:21N 38°36' W 090°12'  
Track history (hours):
 
Tides and Currents Weather Stations Pressure Air Temp Water Temp Dewpoint Dewpoint Depression Visibility Wind Speed Wind Dir Waves Ship Positions

Viking Queen

Owner: American River Transportation Company, St Louis, MO. More information available from US FCC via Universal Licensing System and Coast Guard Vessel Documentation Center.

Last reported at 2018-May-16 08:17 UTC. Time now 2018-May-22 15:46 UTC.
Position N 32°57' W 091°06'.

Length 58 m.

Type: Towing. MMSI: 366985050.

Date/timePositionNaut miles runAvg speedWind from/ knotsBaromVisibWave heightAir tempDewpointWater temp
2018-May-16 08:17N 32°57' W 091°06'0 0.1
2018-May-16 07:50N 32°57' W 091°06'0 0.3
2018-May-16 07:01N 32°57' W 091°06'0 4.3
2018-May-16 07:00N 32°57' W 091°05'2 3.8
2018-May-16 06:30N 32°56' W 091°04'2 4.2
2018-May-16 05:59N 32°54' W 091°04'2 4.6
2018-May-16 05:30N 32°52' W 091°06'4 4.4
2018-May-16 04:40N 32°49' W 091°09'1 4.1
2018-May-16 04:30N 32°49' W 091°09'2 4.3
2018-May-16 04:00N 32°46' W 091°10'2 4.3
2018-May-16 03:30N 32°44' W 091°09'3 2.9
2018-May-16 02:23N 32°44' W 091°05'2 4.1
2018-May-16 02:00N 32°43' W 091°03'2 3.9
2018-May-16 01:26N 32°41' W 091°04'2 5.0
2018-May-16 01:00N 32°40' W 091°07'2 4.2
2018-May-16 00:30N 32°39' W 091°09'2 5.0
2018-May-16 00:00N 32°37' W 091°09'2 4.6
2018-May-15 23:30N 32°35' W 091°07'2 4.5
2018-May-15 23:00N 32°33' W 091°06'2 4.6
2018-May-15 22:30N 32°31' W 091°07'1 2.1
2018-May-15 22:00N 32°30' W 091°07'2 4.5
2018-May-15 21:30N 32°28' W 091°06'2 4.8
2018-May-15 21:00N 32°26' W 091°03'2 4.8
2018-May-15 20:29N 32°26' W 091°01'2 4.3
2018-May-15 20:00N 32°24' W 090°60'2 4.4
2018-May-15 19:30N 32°22' W 091°00'2 4.4
2018-May-15 19:00N 32°21' W 090°58'1 2.2
2018-May-15 18:30N 32°21' W 090°56'0 0.0
2018-May-15 18:00N 32°21' W 090°56'0 0.0
2018-May-15 17:30N 32°21' W 090°56'0 0.0
2018-May-15 17:00N 32°21' W 090°56'0 0.0
2018-May-15 16:30N 32°21' W 090°56'0 0.0
2018-May-15 16:00N 32°21' W 090°56'0 0.0
2018-May-15 15:30N 32°21' W 090°56'0 0.0
2018-May-15 15:00N 32°21' W 090°56'1 2.8
2018-May-15 14:30N 32°20' W 090°55'2 3.6
2018-May-15 14:00N 32°19' W 090°54'1 2.3
2018-May-15 13:30N 32°18' W 090°56'0 0.3
2018-May-15 12:59N 32°18' W 090°56'1 2.8
2018-May-15 12:30N 32°17' W 090°57'2 4.5
2018-May-15 12:00N 32°15' W 090°58'1 2.6
2018-May-15 11:30N 32°14' W 090°59'2 4.6
2018-May-15 11:00N 32°12' W 090°59'2 3.7
2018-May-15 10:29N 32°10' W 090°60'2 3.8
2018-May-15 10:00N 32°08' W 091°00'2 3.7
2018-May-15 09:30N 32°07' W 091°02'1 2.3
2018-May-15 08:59N 32°08' W 091°04'1 2.0
2018-May-15 08:30N 32°08' W 091°05'0 0.2
2018-May-15 08:00N 32°08' W 091°05'0 0.4
2018-May-15 07:30N 32°08' W 091°05'1 1.9
2018-May-15 07:00N 32°08' W 091°06'2 3.1
2018-May-15 06:30N 32°06' W 091°06'2 4.6
2018-May-15 05:59N 32°05' W 091°04'2 4.1
2018-May-15 05:30N 32°03' W 091°04'2 4.1
2018-May-15 04:58N 32°01' W 091°05'49 3.2
2018-May-14 13:46N 31°17' W 091°31'1 3.7
2018-May-14 13:29N 31°16' W 091°31'5 3.5
2018-May-14 11:59N 31°16' W 091°37'7 2.6
2018-May-14 09:21N 31°09' W 091°36'  
2018-May-09 21:42N 31°57' W 091°11'2 9.3
2018-May-09 21:30N 31°59' W 091°10'5 9.7
2018-May-09 21:00N 32°01' W 091°05'5 8.5
2018-May-09 20:25N 32°06' W 091°05'2 5.9
2018-May-09 20:00N 32°08' W 091°05'4 8.3
2018-May-09 19:30N 32°09' W 091°00'510.6
2018-May-09 19:00N 32°14' W 090°59'5 9.1
2018-May-09 18:30N 32°18' W 090°55'3 5.7
2018-May-09 18:00N 32°20' W 090°54'3 6.8
2018-May-09 17:30N 32°21' W 090°58'4 7.4
2018-May-09 17:00N 32°24' W 090°60'510.0
2018-May-09 16:30N 32°27' W 091°05'5 9.1
2018-May-09 15:59N 32°31' W 091°06'8 9.0
2018-May-09 15:03N 32°40' W 091°08'0 9.7
2018-May-09 15:00N 32°40' W 091°08'12 6.2
2018-May-09 13:08N 32°51' W 091°07'210.3
2018-May-09 12:59N 32°52' W 091°05'  
2018-May-06 21:38N 38°36' W 090°12'0 0.1
2018-May-06 17:56N 38°36' W 090°12'0 0.0
2018-May-06 17:28N 38°36' W 090°12'0 0.1
2018-May-06 13:08N 38°36' W 090°12'0 0.0
2018-May-06 12:38N 38°36' W 090°12'0 0.0
2018-May-06 12:15N 38°36' W 090°12'0 0.0
2018-May-06 11:21N 38°36' W 090°12'0 0.0
2018-May-06 10:54N 38°36' W 090°12'0 0.0
2018-May-06 10:07N 38°36' W 090°12'0 0.0
2018-May-06 10:00N 38°36' W 090°12'0 0.0
2018-May-06 09:30N 38°36' W 090°12'0 0.0
2018-May-06 09:00N 38°36' W 090°12'0 0.0
2018-May-06 08:21N 38°36' W 090°12'  

Dump ship's entire track history